createdAt,value
2019-03-04T00:02:23.266Z,9.40
2019-03-04T00:17:27.058Z,9.30
2019-03-04T00:32:30.847Z,9.40
2019-03-04T00:47:34.568Z,9.50
2019-03-04T01:02:38.336Z,9.60
2019-03-04T01:17:42.169Z,9.80
2019-03-04T01:32:45.886Z,9.70
2019-03-04T01:47:49.671Z,9.50
2019-03-04T02:02:53.555Z,9.50
2019-03-04T02:17:57.471Z,9.40
2019-03-04T02:33:01.188Z,9.40
2019-03-04T02:48:05.070Z,9.50
2019-03-04T03:03:08.903Z,9.50
2019-03-04T03:18:12.581Z,9.60
2019-03-04T03:33:16.414Z,9.40
2019-03-04T03:48:20.199Z,9.10
2019-03-04T04:03:24.009Z,8.80
2019-03-04T04:18:27.913Z,8.70
2019-03-04T04:33:31.796Z,8.70
2019-03-04T04:48:35.677Z,8.80
2019-03-04T05:03:39.518Z,8.80
2019-03-04T05:44:04.277Z,8.40
2019-03-04T05:59:08.074Z,8.10
2019-03-04T06:14:11.897Z,8.00
2019-03-04T06:29:15.569Z,8.00
2019-03-04T06:44:19.519Z,8.40
2019-03-04T06:59:32.400Z,9.10
2019-03-04T07:14:36.280Z,9.60
2019-03-04T07:29:40.137Z,10.50
2019-03-04T07:44:44.170Z,11.60
2019-03-04T07:59:47.940Z,11.30
2019-03-04T08:14:51.628Z,11.80
2019-03-04T08:29:55.357Z,12.20
2019-03-04T08:44:59.054Z,12.40
2019-03-04T09:00:03.056Z,13.40
2019-03-04T09:15:10.102Z,17.70
2019-03-04T09:30:16.684Z,18.70
2019-03-04T09:45:20.830Z,22.50
2019-03-04T10:00:41.461Z,17.40
2019-03-04T10:15:57.203Z,16.30
2019-03-04T10:31:39.033Z,16.00
2019-03-04T10:46:56.459Z,15.90
2019-03-04T11:02:00.269Z,15.60
2019-03-04T11:17:04.019Z,15.30
2019-03-04T11:32:08.767Z,15.40
2019-03-04T11:47:12.620Z,15.30
2019-03-04T12:02:18.061Z,15.20
2019-03-04T12:17:21.933Z,14.90
2019-03-04T12:32:27.605Z,14.80
2019-03-04T13:02:57.481Z,14.70
2019-03-04T13:17:58.225Z,14.90
2019-03-04T13:33:01.920Z,15.30
2019-03-04T13:48:05.962Z,15.80
2019-03-04T14:03:11.336Z,15.80
2019-03-04T14:18:15.122Z,15.40
2019-03-04T14:33:19.021Z,15.70
2019-03-04T14:48:22.805Z,16.40
2019-03-04T15:03:26.597Z,16.70
2019-03-04T15:18:30.354Z,16.60
2019-03-04T15:33:34.150Z,16.20
2019-03-04T15:48:37.889Z,15.80
2019-03-04T16:03:41.731Z,15.60
2019-03-04T16:18:45.491Z,15.40
2019-03-04T16:33:49.281Z,15.10
2019-03-04T16:48:53.082Z,14.80
2019-03-04T17:03:56.823Z,14.50
2019-03-04T17:19:00.594Z,14.30
2019-03-04T17:34:04.387Z,14.00
2019-03-04T17:49:08.212Z,13.80
2019-03-04T18:04:12.320Z,13.60
2019-03-04T18:19:16.084Z,13.40
2019-03-04T18:34:57.520Z,13.10
2019-03-04T18:50:01.341Z,12.90
2019-03-04T19:05:07.992Z,12.60
2019-03-04T19:20:14.581Z,12.50
2019-03-04T19:35:18.363Z,12.30
2019-03-04T19:50:22.278Z,12.20
2019-03-04T20:05:26.073Z,12.10
2019-03-04T20:20:29.895Z,11.90
2019-03-04T20:35:33.710Z,11.90
2019-03-04T20:50:37.517Z,11.80
2019-03-04T21:05:41.481Z,11.90
2019-03-04T21:20:45.423Z,11.10
2019-03-04T21:36:03.949Z,9.90
2019-03-04T21:51:19.609Z,9.50
2019-03-04T22:06:29.103Z,8.90
2019-03-04T22:21:33.174Z,8.80
2019-03-04T22:36:37.041Z,8.60
2019-03-04T22:51:40.852Z,8.40
2019-03-04T23:07:03.054Z,8.00
2019-03-04T23:22:07.048Z,7.80
2019-03-04T23:37:10.802Z,7.90
2019-03-04T23:52:14.600Z,7.90
